CYER

Details ICAO CYER (YER)
Name Ft Severn
Region Canada
Timezone America/Toronto (UTC-4.0)
Plans Departing 8
Arriving 8
Stats Elevation 42 ft / 13 m (AMSL)
Location 56.018979° -87.676399°
Runways 1
Magnetic Variation 7.867° W
Sunrise 2018-05-23 09:25:29 UTC / 2018-05-23 05:25:29 Local
Sunset 2018-05-24 02:12:20 UTC / 2018-05-23 22:12:20 Local
Advertisement - Login to hide

Runways

ID Width Length Bearing (true) Bearing (mag) Surface Threshold Offset Overrun Length
14 98 ft / 30 m 3,878 ft / 1,182 m 142.70° 150.57° Gravel 0 ft / 0 m 0 ft / 0 m
32 98 ft / 30 m 3,878 ft / 1,182 m 322.71° 330.58° Gravel 0 ft / 0 m 0 ft / 0 m

Map

Weather


0- 5 10 15 20 25 30 35+ Temperature / ° C

Clouds and Precipitation
Forecast for 2018-05-23 12:00 UTC. Updated 8 minutes ago

Ground ~20,000 ft ~40,000 ft Winds

METAR

CYER 230900Z AUTO 16005KT 9SM FEW120 OVC160 M04/M06 A3023 RMK SLP238

TAF

TAF CYER 230838Z 2309/2319 16005KT P6SM FEW020 BKN160 TEMPO 2309/2312 BKN020 OVC160 BECMG 2309/2311 17010KT FM231700 17015KT P6SM BKN100 RMK FCST BASED ON AUTO OBS. NXT FCST BY 231500Z
Warning: Do not use this data for real-world aviation or navigation. No guarantee of current accuracy is given.